Time;durP1;ratioP1;P1;durP2;ratioP2;P2;SDS_P1;SDS_P2;PMS_P1;PMS_P2;Temp;Humidity;BMP_temperature;BMP_pressure;BME280_temperature;BME280_humidity;BME280_pressure;Samples;Min_cycle;Max_cycle;Signal;HPM_P1;HPM_P2
2024/03/23 00:01:05;;;;;;;18.80;13.80;;;;;;;10.48;100.00;99628.66;5140776;27;20047;-71
2024/03/23 00:03:33;;;;;;;;;;;;;;;10.47;100.00;99629.59;5108706;27;20052;-72
2024/03/23 00:06:04;;;;;;;21.10;13.85;;;;;;;10.39;100.00;99615.13;5104845;27;19955;-71
2024/03/23 00:08:35;;;;;;;22.48;14.38;;;;;;;10.37;100.00;99631.09;5121181;27;20054;-72
2024/03/23 00:11:06;;;;;;;24.67;17.55;;;;;;;10.30;100.00;99626.22;5123082;27;20086;-72
2024/03/23 00:13:33;;;;;;;;;;;;;;;10.23;100.00;99617.78;5102796;27;20130;-71
2024/03/23 00:16:04;;;;;;;24.13;15.40;;;;;;;10.14;100.00;99616.50;5127138;27;19965;-70
2024/03/23 00:18:32;;;;;;;21.08;14.82;;;;;;;10.05;100.00;99610.88;5124195;27;20063;-72
2024/03/23 00:21:00;;;;;;;19.02;14.05;;;;;;;9.97;100.00;99610.44;5109232;27;20059;-72
2024/03/23 00:23:27;;;;;;;22.40;14.75;;;;;;;9.91;100.00;99616.09;5102988;27;20126;-72
2024/03/23 00:25:55;;;;;;;20.05;14.82;;;;;;;9.83;100.00;99605.94;5103797;27;20117;-71
2024/03/23 00:28:22;;;;;;;24.20;15.05;;;;;;;9.79;100.00;99604.41;5116780;27;20035;-71
2024/03/23 00:30:50;;;;;;;22.77;14.82;;;;;;;9.77;100.00;99601.00;5124136;27;20560;-69
2024/03/23 00:33:20;;;;;;;24.50;15.32;;;;;;;9.75;100.00;99592.31;5121257;27;20448;-74
2024/03/23 00:35:50;;;;;;;22.13;16.83;;;;;;;9.72;100.00;99587.19;5122383;28;20051;-71
2024/03/23 00:38:22;;;;;;;25.02;15.98;;;;;;;9.75;100.00;99584.41;5105801;28;20451;-71
2024/03/23 00:40:52;;;;;;;26.13;17.55;;;;;;;9.75;100.00;99585.25;5122612;27;20075;-71
2024/03/23 00:43:20;;;;;;;;;;;;;;;9.71;100.00;99577.56;5118068;27;20058;-71
2024/03/23 00:45:51;;;;;;;27.42;17.08;;;;;;;9.62;100.00;99564.84;5105235;28;19955;-70
2024/03/23 00:48:21;;;;;;;26.45;17.45;;;;;;;9.56;100.00;99562.56;5121082;28;20075;-70
2024/03/23 00:50:51;;;;;;;26.48;18.55;;;;;;;9.47;100.00;99566.56;5123279;28;20528;-71
2024/03/23 00:53:18;;;;;;;28.98;18.80;;;;;;;9.39;100.00;99559.06;5119443;28;20473;-70
2024/03/23 00:55:46;;;;;;;28.27;18.27;;;;;;;9.29;100.00;99546.44;5123911;28;20067;-72
2024/03/23 00:58:12;;;;;;;26.70;18.38;;;;;;;9.24;100.00;99544.06;5121668;28;20081;-71
2024/03/23 01:00:39;;;;;;;28.35;19.20;;;;;;;9.18;100.00;99538.25;5107534;28;20035;-70
2024/03/23 01:03:04;;;;;;;29.48;19.50;;;;;;;9.12;100.00;99518.34;5117923;27;20071;-73
2024/03/23 01:05:31;;;;;;;29.88;19.67;;;;;;;9.13;100.00;99518.22;5120208;27;20039;-70
2024/03/23 01:07:57;;;;;;;28.30;17.98;;;;;;;9.18;100.00;99525.91;5104633;28;20086;-70
2024/03/23 01:10:27;;;;;;;25.55;18.63;;;;;;;9.16;100.00;99535.69;5123214;28;20126;-70
2024/03/23 01:12:53;;;;;;;28.55;17.95;;;;;;;9.11;100.00;99498.13;5124870;27;20081;-74
2024/03/23 01:15:20;;;;;;;26.23;17.70;;;;;;;9.17;100.00;99518.06;5125473;27;20042;-71
2024/03/23 01:17:47;;;;;;;25.98;17.95;;;;;;;9.15;100.00;99507.56;5125272;27;20803;-73
2024/03/23 01:20:15;;;;;;;26.10;18.27;;;;;;;9.13;100.00;99509.44;5111881;27;20063;-70
2024/03/23 01:22:41;;;;;;;27.33;18.45;;;;;;;9.15;100.00;99519.00;5125934;27;20067;-71
2024/03/23 01:25:09;;;;;;;27.95;18.50;;;;;;;9.13;100.00;99512.09;5120809;27;20034;-73
2024/03/23 01:27:36;;;;;;;26.55;17.60;;;;;;;9.20;100.00;99508.19;5127315;27;20046;-72
2024/03/23 01:30:03;;;;;;;25.90;18.10;;;;;;;9.24;100.00;99508.88;5096039;27;20131;-72
2024/03/23 01:32:29;;;;;;;33.15;19.48;;;;;;;9.28;100.00;99497.19;5114360;27;20067;-70
2024/03/23 01:34:56;;;;;;;27.90;17.77;;;;;;;9.29;100.00;99493.59;5103785;27;20024;-71
2024/03/23 01:37:21;;;;;;;24.15;16.85;;;;;;;9.32;100.00;99489.00;5124671;27;20086;-71
2024/03/23 01:39:49;;;;;;;26.08;17.35;;;;;;;9.35;100.00;99483.53;5127152;27;20520;-71
2024/03/23 01:42:14;;;;;;;25.42;17.55;;;;;;;9.34;100.00;99475.69;5114694;27;20126;-71
2024/03/23 01:44:42;;;;;;;26.20;17.42;;;;;;;9.40;100.00;99470.09;5120615;27;20113;-71
2024/03/23 01:47:09;;;;;;;27.23;17.38;;;;;;;9.37;100.00;99465.81;5111247;27;20047;-71
2024/03/23 01:49:37;;;;;;;23.92;16.75;;;;;;;9.33;100.00;99455.50;5125485;27;20070;-71
2024/03/23 01:52:03;;;;;;;26.92;16.55;;;;;;;9.32;100.00;99446.72;5125232;27;20496;-70
2024/03/23 01:54:31;;;;;;;26.02;16.92;;;;;;;9.28;100.00;99429.38;5117723;27;20057;-70
2024/03/23 01:56:57;;;;;;;24.15;16.98;;;;;;;9.36;100.00;99436.84;5128890;27;20147;-71
2024/03/23 01:59:24;;;;;;;25.33;16.83;;;;;;;9.38;100.00;99432.31;5126034;27;20043;-70
2024/03/23 02:01:51;;;;;;;24.70;16.88;;;;;;;9.42;100.00;99425.94;5130314;27;20526;-70
2024/03/23 02:04:22;;;;;;;22.98;16.95;;;;;;;9.39;100.00;99423.47;5119725;27;20046;-72
2024/03/23 02:06:48;;;;;;;28.90;18.23;;;;;;;9.39;100.00;99421.66;5101132;27;20089;-71
2024/03/23 02:09:15;;;;;;;27.20;18.60;;;;;;;9.42;100.00;99426.78;5124942;27;20040;-71
2024/03/23 02:11:41;;;;;;;25.20;17.60;;;;;;;9.42;100.00;99426.78;5126385;27;20092;-71
2024/03/23 02:14:08;;;;;;;24.60;16.80;;;;;;;9.40;100.00;99425.16;5120652;27;20067;-76
2024/03/23 02:16:34;;;;;;;26.95;18.08;;;;;;;9.39;100.00;99421.66;5108531;27;20070;-71
2024/03/23 02:19:02;;;;;;;27.65;18.08;;;;;;;9.39;100.00;99423.47;5101713;28;20031;-71
2024/03/23 02:21:31;;;;;;;25.25;18.15;;;;;;;9.37;100.00;99415.63;5102932;27;20125;-72
2024/03/23 02:24:01;;;;;;;24.65;17.23;;;;;;;9.34;100.00;99413.16;5110542;27;20058;-73
2024/03/23 02:26:28;;;;;;;28.25;18.45;;;;;;;9.27;100.00;99403.88;5107937;27;20050;-72
2024/03/23 02:28:58;;;;;;;30.55;21.08;;;;;;;9.22;100.00;99405.94;5110525;27;20066;-71
2024/03/23 02:31:23;;;;;;;26.98;19.85;;;;;;;9.17;100.00;99401.84;5107409;27;20069;-71
2024/03/23 02:33:52;;;;;;;28.33;18.88;;;;;;;9.10;100.00;99390.78;5107076;27;20150;-74
2024/03/23 02:36:20;;;;;;;27.50;18.80;;;;;;;9.12;100.00;99383.63;5124857;27;20074;-73
2024/03/23 02:38:49;;;;;;;28.23;19.75;;;;;;;9.07;100.00;99390.97;5126016;27;20130;-71
2024/03/23 02:41:22;;;;;;;29.63;19.98;;;;;;;9.00;100.00;99382.50;5089482;27;20126;-72
2024/03/23 02:43:49;;;;;;;28.27;19.98;;;;;;;8.97;100.00;99389.78;5105416;27;20074;-71
2024/03/23 02:46:15;;;;;;;27.58;19.52;;;;;;;8.96;100.00;99374.88;5108860;27;20433;-72
2024/03/23 02:48:42;;;;;;;27.48;19.08;;;;;;;8.98;100.00;99372.97;5111336;27;20592;-70
2024/03/23 02:51:09;;;;;;;26.02;18.75;;;;;;;8.99;100.00;99366.75;5111152;27;20059;-70
2024/03/23 02:53:37;;;;;;;27.38;19.73;;;;;;;9.02;100.00;99369.22;5121793;27;20134;-71
2024/03/23 02:56:03;;;;;;;26.25;18.33;;;;;;;9.06;100.00;99362.84;5123795;27;20055;-72
2024/03/23 02:58:32;;;;;;;26.00;18.77;;;;;;;9.11;100.00;99363.44;5110717;27;20138;-70
2024/03/23 03:00:58;;;;;;;27.70;19.58;;;;;;;9.12;100.00;99359.88;5106379;27;20043;-71
2024/03/23 03:03:25;;;;;;;33.53;19.67;;;;;;;9.18;100.00;99361.28;5122788;27;20130;-71
2024/03/23 03:05:55;;;;;;;31.25;19.42;;;;;;;9.23;100.00;99357.44;5091013;27;20097;-70
2024/03/23 03:08:22;;;;;;;27.23;19.15;;;;;;;9.29;100.00;99364.16;5110986;27;20149;-70
2024/03/23 03:10:49;;;;;;;30.63;19.73;;;;;;;9.31;100.00;99357.84;5127684;27;20071;-71
2024/03/23 03:13:17;;;;;;;29.13;18.23;;;;;;;9.33;100.00;99347.19;5117492;27;20089;-69
2024/03/23 03:15:44;;;;;;;30.35;19.13;;;;;;;9.34;100.00;99339.16;5103362;27;20043;-73
2024/03/23 03:18:11;;;;;;;26.48;18.25;;;;;;;9.34;100.00;99360.31;5129499;27;20039;-72
2024/03/23 03:20:39;;;;;;;28.00;19.05;;;;;;;9.20;100.00;99352.34;5106964;27;20126;-70
2024/03/23 03:23:06;;;;;;;29.92;19.05;;;;;;;9.31;100.00;99362.28;5106806;27;20071;-70
2024/03/23 03:25:32;;;;;;;27.63;17.38;;;;;;;9.28;100.00;99347.47;5106922;27;20128;-73
2024/03/23 03:27:59;;;;;;;25.85;18.90;;;;;;;9.21;100.00;99317.06;5124752;27;20043;-72
2024/03/23 03:30:24;;;;;;;27.98;18.25;;;;;;;9.17;100.00;99314.69;5120882;27;20134;-70
2024/03/23 03:32:55;;;;;;;26.83;18.40;;;;;;;9.23;100.00;99341.59;5123796;27;20069;-70
2024/03/23 03:35:20;;;;;;;26.63;18.10;;;;;;;9.19;100.00;99326.84;5101352;27;20112;-71
2024/03/23 03:37:47;;;;;;;28.73;17.90;;;;;;;9.13;100.00;99306.06;5122583;27;20621;-74
2024/03/23 03:40:14;;;;;;;28.25;18.05;;;;;;;9.25;100.00;99326.50;5118507;27;20039;-71
2024/03/23 03:42:41;;;;;;;31.50;18.50;;;;;;;9.25;100.00;99315.09;5111880;27;20122;-71
2024/03/23 03:45:07;;;;;;;27.85;18.08;;;;;;;9.28;100.00;99314.91;5117875;27;20058;-71
2024/03/23 03:47:34;;;;;;;24.98;17.10;;;;;;;9.35;100.00;99314.44;5124442;27;20580;-71
2024/03/23 03:50:02;;;;;;;30.48;18.63;;;;;;;9.43;100.00;99322.78;5126430;27;20127;-71
2024/03/23 03:52:29;;;;;;;29.27;17.38;;;;;;;9.53;100.00;99322.22;5105284;27;20051;-76
2024/03/23 03:55:02;;;;;;;29.27;18.00;;;;;;;9.55;100.00;99321.22;5102467;27;20119;-71
2024/03/23 03:57:32;;;;;;;30.88;19.45;;;;;;;9.71;100.00;99327.28;5121113;27;20037;-70
2024/03/23 03:59:58;;;;;;;29.23;18.55;;;;;;;9.81;100.00;99333.69;5126795;27;20058;-72
2024/03/23 04:02:25;;;;;;;32.13;19.65;;;;;;;9.85;100.00;99331.72;5097002;27;20056;-70
2024/03/23 04:04:51;;;;;;;34.13;20.02;;;;;;;9.87;100.00;99335.13;5112162;27;20564;-72
2024/03/23 04:07:22;;;;;;;34.00;21.83;;;;;;;9.88;100.00;99333.34;5092732;27;20047;-71
2024/03/23 04:09:50;;;;;;;35.53;22.05;;;;;;;9.85;100.00;99344.94;5121089;27;20035;-72
2024/03/23 04:12:18;;;;;;;41.28;22.63;;;;;;;9.66;100.00;99360.19;5124010;27;20092;-72
2024/03/23 04:14:44;;;;;;;35.67;22.48;;;;;;;9.51;100.00;99356.69;5110479;27;20039;-72
2024/03/23 04:17:11;;;;;;;39.42;23.17;;;;;;;9.35;100.00;99371.72;5110991;27;20574;-72
2024/03/23 04:19:39;;;;;;;33.47;19.17;;;;;;;9.21;100.00;99383.09;5093483;27;20096;-71
2024/03/23 04:22:06;;;;;;;26.77;15.45;;;;;;;9.14;100.00;99393.16;5110521;27;20082;-71
2024/03/23 04:24:33;;;;;;;14.52;8.32;;;;;;;9.02;100.00;99395.63;5103444;27;20166;-70
2024/03/23 04:27:01;;;;;;;13.90;7.78;;;;;;;8.87;100.00;99401.78;5120225;27;20043;-70
2024/03/23 04:29:27;;;;;;;10.32;5.75;;;;;;;8.69;100.00;99401.84;5120991;27;20126;-72
2024/03/23 04:31:53;;;;;;;7.80;4.63;;;;;;;8.40;100.00;99408.72;5108190;27;20046;-70
2024/03/23 04:34:19;;;;;;;5.75;3.20;;;;;;;8.16;100.00;99411.78;5121067;27;20031;-68
2024/03/23 04:36:46;;;;;;;4.28;2.58;;;;;;;8.00;100.00;99409.97;5107228;28;20036;-69
2024/03/23 04:39:12;;;;;;;3.10;2.10;;;;;;;7.78;100.00;99390.03;5110152;27;20075;-70
2024/03/23 04:41:41;;;;;;;3.13;1.90;;;;;;;7.68;100.00;99387.03;5105993;28;20941;-70
2024/03/23 04:44:08;;;;;;;2.22;1.75;;;;;;;7.50;100.00;99375.66;5120014;27;20066;-69
2024/03/23 04:46:35;;;;;;;1.90;1.30;;;;;;;7.45;100.00;99382.94;5122543;27;20067;-69
2024/03/23 04:49:04;;;;;;;1.95;1.55;;;;;;;6.99;100.00;99313.28;5118265;27;20077;-70
2024/03/23 04:51:36;;;;;;;1.30;0.93;;;;;;;7.34;100.00;99394.00;5122075;27;20047;-69
2024/03/23 04:54:04;;;;;;;1.75;1.00;;;;;;;7.33;100.00;99408.09;5095851;27;20066;-75
2024/03/23 04:56:32;;;;;;;1.35;0.98;;;;;;;7.35;100.00;99411.50;5124891;27;20130;-72
2024/03/23 04:59:01;;;;;;;2.53;1.02;;;;;;;7.36;100.00;99407.09;5108404;27;20126;-71
2024/03/23 05:01:30;;;;;;;1.10;1.00;;;;;;;7.28;100.00;99398.72;5129479;27;20542;-70
2024/03/23 05:03:57;;;;;;;0.82;0.32;;;;;;;7.29;100.00;99405.69;5130123;27;20127;-72
2024/03/23 05:06:24;;;;;;;0.90;0.70;;;;;;;7.29;100.00;99410.94;5147505;27;20043;-71
2024/03/23 05:08:50;;;;;;;0.85;0.60;;;;;;;7.39;100.00;99417.50;5153213;27;20039;-71
2024/03/23 05:11:16;;;;;;;1.70;0.70;;;;;;;7.43;100.00;99418.16;5149014;27;20031;-71
2024/03/23 05:13:42;;;;;;;1.48;0.75;;;;;;;7.47;100.00;99411.81;5135427;27;20027;-70
2024/03/23 05:16:11;;;;;;;1.27;1.08;;;;;;;7.47;100.00;99411.81;5116284;27;20052;-69
2024/03/23 05:18:39;;;;;;;0.82;0.80;;;;;;;7.44;100.00;99415.47;5108486;27;20150;-69
2024/03/23 05:21:08;;;;;;;1.67;1.10;;;;;;;7.43;100.00;99434.81;5126045;27;20081;-71
2024/03/23 05:23:33;;;;;;;1.20;1.05;;;;;;;7.43;100.00;99447.13;5098181;27;20138;-74
2024/03/23 05:26:00;;;;;;;1.85;1.20;;;;;;;7.40;100.00;99459.53;5106472;27;20042;-72
2024/03/23 05:28:26;;;;;;;2.13;1.20;;;;;;;7.29;100.00;99426.75;5109145;27;20088;-71
2024/03/23 05:30:53;;;;;;;1.50;1.38;;;;;;;7.46;100.00;99461.03;5127911;27;20505;-71
2024/03/23 05:33:21;;;;;;;1.30;1.20;;;;;;;7.63;100.00;99486.53;5119756;27;20040;-72
2024/03/23 05:35:48;;;;;;;1.63;1.10;;;;;;;7.59;100.00;99467.38;5118990;27;20077;-72
2024/03/23 05:38:16;;;;;;;2.60;1.00;;;;;;;7.65;100.00;99493.44;5122362;27;20126;-71
2024/03/23 05:40:54;;;;;;;1.10;1.00;;;;;;;7.67;100.00;99509.19;5124247;27;20118;-70
2024/03/23 05:43:19;;;;;;;1.70;0.95;;;;;;;7.70;100.00;99504.63;5107114;27;20039;-71
2024/03/23 05:45:46;;;;;;;0.80;0.80;;;;;;;7.71;100.00;99514.19;5122788;27;20975;-70
2024/03/23 05:48:12;;;;;;;2.92;1.70;;;;;;;7.73;100.00;99527.31;5111685;27;20475;-71
2024/03/23 05:50:40;;;;;;;1.88;1.50;;;;;;;7.71;100.00;99523.91;5119715;27;20066;-71
2024/03/23 05:53:06;;;;;;;3.75;1.90;;;;;;;7.67;100.00;99528.47;5127439;27;20062;-70
2024/03/23 05:55:33;;;;;;;3.70;1.80;;;;;;;7.69;100.00;99531.03;5122610;27;20512;-70
2024/03/23 05:57:59;;;;;;;2.80;2.53;;;;;;;7.68;100.00;99531.97;5106126;27;20096;-71
2024/03/23 06:00:26;;;;;;;2.60;1.77;;;;;;;7.68;100.00;99547.78;5130814;27;20443;-71
2024/03/23 06:02:52;;;;;;;2.17;1.80;;;;;;;7.60;100.00;99552.56;5110178;27;20039;-70
2024/03/23 06:05:19;;;;;;;1.75;1.45;;;;;;;7.60;100.00;99552.56;5107862;27;20043;-71
2024/03/23 06:07:46;;;;;;;2.28;1.50;;;;;;;7.59;100.00;99575.41;5110242;27;20519;-72
2024/03/23 06:10:13;;;;;;;2.42;1.45;;;;;;;7.55;100.00;99570.38;5107590;27;20074;-70
2024/03/23 06:12:38;;;;;;;1.52;1.35;;;;;;;7.56;100.00;99588.72;5126900;27;20145;-70
2024/03/23 06:15:10;;;;;;;1.38;0.80;;;;;;;7.56;100.00;99578.19;5105415;27;20077;-71
2024/03/23 06:17:35;;;;;;;1.40;0.80;;;;;;;7.53;100.00;99567.81;5112504;27;20059;-72
2024/03/23 06:20:06;;;;;;;1.10;1.00;;;;;;;7.53;100.00;99562.56;5113175;27;20043;-71
2024/03/23 06:22:33;;;;;;;1.38;0.80;;;;;;;7.60;100.00;99571.00;5125280;27;20120;-71
2024/03/23 06:25:01;;;;;;;0.68;0.60;;;;;;;7.65;100.00;99588.31;5108107;27;20605;-75
2024/03/23 06:27:27;;;;;;;1.73;0.47;;;;;;;7.64;100.00;99598.91;5118197;27;20070;-71
2024/03/23 06:29:54;;;;;;;1.85;0.30;;;;;;;7.72;100.00;99621.31;5130621;27;20420;-73
2024/03/23 06:32:20;;;;;;;0.20;0.20;;;;;;;7.77;100.00;99629.03;5113572;27;20067;-71
2024/03/23 06:34:47;;;;;;;0.20;0.13;;;;;;;7.70;100.00;99641.66;5115992;27;20516;-72
2024/03/23 06:37:13;;;;;;;0.82;0.20;;;;;;;7.64;100.00;99643.72;5121313;27;20154;-71
2024/03/23 06:39:41;;;;;;;0.20;0.13;;;;;;;7.53;100.00;99664.44;5123674;27;20040;-71
2024/03/23 06:42:08;;;;;;;0.65;0.32;;;;;;;7.49;100.00;99673.41;5112665;27;20070;-70
2024/03/23 06:44:35;;;;;;;1.30;0.40;;;;;;;7.51;100.00;99658.38;5107242;27;20034;-72
2024/03/23 06:47:02;;;;;;;1.00;0.30;;;;;;;7.53;100.00;99667.06;5117231;27;20066;-70
2024/03/23 06:49:29;;;;;;;0.10;0.10;;;;;;;7.57;100.00;99682.66;5126273;27;20069;-72
2024/03/23 06:51:55;;;;;;;0.82;0.30;;;;;;;7.59;100.00;99695.75;5127491;27;20107;-70
2024/03/23 06:54:22;;;;;;;0.90;0.20;;;;;;;7.63;100.00;99705.22;5112530;27;20046;-71
2024/03/23 06:56:48;;;;;;;0.17;0.15;;;;;;;7.59;100.00;99708.94;5121916;27;20026;-71
2024/03/23 06:59:16;;;;;;;0.47;0.32;;;;;;;7.52;100.00;99700.47;5126316;27;20115;-70
2024/03/23 07:01:42;;;;;;;0.90;0.32;;;;;;;7.42;100.00;99709.69;5122219;27;20070;-72
2024/03/23 07:04:08;;;;;;;0.40;0.40;;;;;;;7.35;100.00;99713.53;5120326;27;20583;-72
2024/03/23 07:06:34;;;;;;;1.30;0.50;;;;;;;7.27;100.00;99694.56;5121498;27;20066;-71
2024/03/23 07:09:01;;;;;;;1.08;0.60;;;;;;;7.30;100.00;99708.47;5116340;27;20044;-73
2024/03/23 07:11:26;;;;;;;1.42;0.70;;;;;;;7.36;100.00;99718.75;5123650;27;20050;-73
2024/03/23 07:13:55;;;;;;;0.93;0.70;;;;;;;7.28;100.00;99725.25;5106967;27;20047;-71
2024/03/23 07:16:23;;;;;;;1.75;0.70;;;;;;;7.27;100.00;99727.03;5120800;27;20122;-71
2024/03/23 07:18:51;;;;;;;2.08;0.60;;;;;;;7.25;100.00;99742.03;5121280;27;20467;-71
2024/03/23 07:21:17;;;;;;;3.28;0.88;;;;;;;7.29;100.00;99742.75;5122119;27;20066;-70
2024/03/23 07:23:46;;;;;;;1.77;0.88;;;;;;;7.30;100.00;99740.06;5125382;27;20066;-71
2024/03/23 07:26:13;;;;;;;2.08;1.00;;;;;;;7.50;100.00;99762.06;5103130;27;20473;-70
2024/03/23 07:28:43;;;;;;;5.03;0.90;;;;;;;7.31;100.00;99727.75;5125854;27;20532;-70
2024/03/23 07:31:11;;;;;;;;;;;;;;;7.71;100.00;99782.19;5110608;27;20476;-72
2024/03/23 07:33:43;;;;;;;3.45;1.17;;;;;;;7.61;100.00;99757.16;5106255;27;20002;-71
2024/03/23 07:36:09;;;;;;;5.22;1.20;;;;;;;7.81;100.00;99791.38;5103116;27;20067;-71
2024/03/23 07:38:36;;;;;;;4.32;1.10;;;;;;;7.70;100.00;99775.19;5124367;27;20078;-72
2024/03/23 07:41:05;;;;;;;4.60;1.30;;;;;;;7.77;100.00;99800.34;5112208;27;20788;-70
2024/03/23 07:43:32;;;;;;;3.27;1.20;;;;;;;7.66;100.00;99805.22;5123346;27;20070;-70
2024/03/23 07:45:58;;;;;;;7.32;1.58;;;;;;;7.70;100.00;99802.41;5119321;27;20138;-72
2024/03/23 07:48:25;;;;;;;5.63;1.52;;;;;;;7.74;100.00;99805.72;5107040;27;20125;-70
2024/03/23 07:51:03;;;;;;;3.67;1.38;;;;;;;7.62;100.00;99814.19;5110711;27;20070;-70
2024/03/23 07:53:30;;;;;;;9.68;1.83;;;;;;;7.48;100.00;99829.75;5121284;27;20039;-76
2024/03/23 07:55:59;;;;;;;7.13;2.25;;;;;;;7.48;100.00;99840.28;5123472;27;20046;-72
2024/03/23 07:58:26;;;;;;;7.07;2.28;;;;;;;7.42;100.00;99845.81;5109677;27;20074;-71
2024/03/23 08:00:52;;;;;;;6.28;1.90;;;;;;;7.27;100.00;99829.75;5128165;27;20051;-74
2024/03/23 08:03:19;;;;;;;6.38;2.00;;;;;;;7.44;100.00;99852.72;5120499;27;20122;-71
2024/03/23 08:05:45;;;;;;;5.93;2.20;;;;;;;7.53;100.00;99856.75;5123161;27;20929;-73
2024/03/23 08:08:14;;;;;;;7.03;2.35;;;;;;;7.68;100.00;99859.59;5116437;27;20512;-71
2024/03/23 08:10:48;;;;;;;8.63;3.42;;;;;;;7.71;100.00;99861.25;5121426;27;20063;-72
2024/03/23 08:13:15;;;;;;;10.15;4.30;;;;;;;7.60;100.00;99860.81;5108614;27;20093;-70
2024/03/23 08:15:40;;;;;;;10.25;4.82;;;;;;;7.54;100.00;99861.97;5119405;27;20564;-71
2024/03/23 08:18:07;;;;;;;10.40;5.10;;;;;;;7.56;100.00;99873.28;5108580;27;20051;-71
2024/03/23 08:20:33;;;;;;;10.07;5.03;;;;;;;7.65;100.00;99853.59;5123366;27;20591;-70
2024/03/23 08:23:02;;;;;;;10.48;5.30;;;;;;;7.89;100.00;99883.28;5126196;27;20031;-70
2024/03/23 08:25:32;;;;;;;11.50;4.85;;;;;;;7.89;100.00;99886.75;5124385;27;20327;-71
2024/03/23 08:28:02;;;;;;;8.57;4.70;;;;;;;7.89;100.00;99886.75;5119131;27;20062;-70
2024/03/23 08:30:29;;;;;;;9.15;4.60;;;;;;;7.80;100.00;99823.91;5121861;27;20067;-72
2024/03/23 08:32:58;;;;;;;10.70;5.15;;;;;;;8.32;100.00;99859.38;5120051;27;20115;-74
2024/03/23 08:35:24;;;;;;;10.68;5.90;;;;;;;8.52;100.00;99874.25;5118237;27;20069;-71
2024/03/23 08:37:50;;;;;;;10.68;5.50;;;;;;;8.41;100.00;99853.66;5119563;27;20059;-74
2024/03/23 08:40:16;;;;;;;9.27;5.53;;;;;;;8.36;100.00;99850.38;5125531;28;20201;-71
2024/03/23 08:42:44;;;;;;;8.38;5.22;;;;;;;8.38;100.00;99893.38;5108264;28;20136;-70
2024/03/23 08:45:10;;;;;;;10.07;5.40;;;;;;;8.30;100.00;99889.34;5108233;27;20135;-72
2024/03/23 08:47:37;;;;;;;12.40;5.25;;;;;;;8.33;100.00;99889.25;5088734;27;20039;-73
2024/03/23 08:50:03;;;;;;;10.13;4.97;;;;;;;8.38;100.00;99896.00;5116265;28;20513;-70
2024/03/23 08:52:32;;;;;;;8.15;3.72;;;;;;;8.48;100.00;99880.63;5120322;28;20043;-72
2024/03/23 08:54:58;;;;;;;10.25;4.07;;;;;;;8.69;100.00;99876.09;5121199;28;20788;-70
2024/03/23 08:57:25;;;;;;;6.95;3.88;;;;;;;8.99;100.00;99879.03;5067880;28;20035;-74
2024/03/23 08:59:53;;;;;;;9.25;3.90;;;;;;;9.29;100.00;99889.88;5120040;27;20047;-72
2024/03/23 09:02:20;;;;;;;8.68;3.65;;;;;;;8.94;100.00;99833.53;5128098;28;20504;-71
2024/03/23 09:04:46;;;;;;;13.80;3.83;;;;;;;9.23;100.00;99893.72;5100568;28;20121;-72
2024/03/23 09:07:15;;;;;;;7.47;2.97;;;;;;;9.16;100.00;99884.38;5120234;27;20051;-71
2024/03/23 09:09:41;;;;;;;10.55;3.85;;;;;;;9.15;100.00;99885.28;5127894;27;20073;-71
2024/03/23 09:12:07;;;;;;;8.38;3.53;;;;;;;9.06;100.00;99891.91;5106241;28;20133;-73
2024/03/23 09:14:33;;;;;;;9.52;3.70;;;;;;;8.84;100.00;99880.66;5100597;28;20042;-71
2024/03/23 09:17:05;;;;;;;10.93;3.95;;;;;;;8.84;100.00;99903.56;5118051;27;20142;-70
2024/03/23 09:19:31;;;;;;;10.18;3.55;;;;;;;8.83;100.00;99888.63;5126233;28;20070;-72
2024/03/23 09:21:58;;;;;;;8.75;3.20;;;;;;;8.65;100.00;99883.34;5109243;28;20382;-71
2024/03/23 09:24:24;;;;;;;11.32;3.40;;;;;;;9.01;100.00;99895.69;5108389;28;20059;-71
2024/03/23 09:26:52;;;;;;;8.43;3.50;;;;;;;9.27;100.00;99874.13;5123328;27;20411;-71
2024/03/23 09:29:19;;;;;;;11.35;3.30;;;;;;;9.64;100.00;99882.84;5117827;27;20039;-71
2024/03/23 09:31:45;;;;;;;12.18;3.85;;;;;;;9.88;99.16;99868.34;5122465;28;20043;-72
2024/03/23 09:34:12;;;;;;;10.88;3.40;;;;;;;9.94;82.60;99868.03;5126494;27;20096;-74
2024/03/23 09:36:39;;;;;;;8.85;3.35;;;;;;;10.02;75.42;99870.28;5126206;27;20074;-70
2024/03/23 09:39:09;;;;;;;10.45;3.38;;;;;;;10.12;78.22;99872.34;5109502;27;20074;-71
2024/03/23 09:41:36;;;;;;;10.90;2.92;;;;;;;10.39;77.43;99879.78;5125596;27;20055;-70
2024/03/23 09:44:03;;;;;;;7.53;3.00;;;;;;;10.51;74.67;99884.41;5105034;27;20039;-71
2024/03/23 09:46:34;;;;;;;11.35;3.58;;;;;;;10.29;75.79;99882.06;5125140;27;20043;-72
2024/03/23 09:49:00;;;;;;;10.60;3.42;;;;;;;10.31;74.46;99887.28;5125251;27;20070;-71
2024/03/23 09:51:28;;;;;;;7.90;2.97;;;;;;;10.29;70.21;99889.13;5105494;27;20050;-73
2024/03/23 09:53:55;;;;;;;9.80;2.90;;;;;;;10.32;70.35;99891.63;5115805;27;20122;-71
2024/03/23 09:56:23;;;;;;;14.43;3.58;;;;;;;10.27;71.73;99889.22;5125570;27;20551;-71
2024/03/23 09:58:49;;;;;;;10.32;3.15;;;;;;;10.49;68.97;99897.72;5126131;27;20066;-71
2024/03/23 10:01:16;;;;;;;8.43;2.65;;;;;;;10.75;62.18;99885.69;5125174;27;20040;-71
2024/03/23 10:03:43;;;;;;;8.77;2.42;;;;;;;10.24;61.82;99838.25;5130203;27;20043;-70
2024/03/23 10:06:10;;;;;;;10.10;3.35;;;;;;;10.56;63.67;99892.94;5124709;27;20108;-71
2024/03/23 10:08:37;;;;;;;11.13;2.63;;;;;;;10.41;61.30;99893.75;5113224;27;20063;-72
2024/03/23 10:11:15;;;;;;;7.75;2.40;;;;;;;10.16;60.36;99889.78;5124704;27;20125;-74
2024/03/23 10:13:42;;;;;;;9.23;2.40;;;;;;;10.10;61.70;99854.84;5100456;27;20301;-70
2024/03/23 10:16:10;;;;;;;7.90;2.05;;;;;;;10.22;58.94;99882.47;5126242;27;20053;-70
2024/03/23 10:18:40;;;;;;;8.55;2.00;;;;;;;10.23;60.56;99890.31;5120887;27;20473;-71
2024/03/23 10:21:10;;;;;;;8.93;1.90;;;;;;;10.39;59.94;99882.44;5108056;27;20066;-70
2024/03/23 10:23:40;;;;;;;6.53;1.95;;;;;;;10.37;59.57;99873.72;5143048;27;20039;-70
2024/03/23 10:26:25;;;;;;;8.68;1.83;;;;;;;10.42;59.43;99869.84;5126670;27;20131;-71
2024/03/23 10:28:53;;;;;;;7.65;2.05;;;;;;;10.56;57.50;99877.03;5124275;27;20531;-72
2024/03/23 10:31:21;;;;;;;9.40;1.92;;;;;;;10.58;57.58;99864.56;5103343;27;20043;-71
2024/03/23 10:33:48;;;;;;;7.28;1.90;;;;;;;10.65;57.60;99858.00;5144016;27;20059;-70
2024/03/23 10:36:17;;;;;;;8.18;1.77;;;;;;;10.29;57.42;99785.94;5126165;27;20039;-75
2024/03/23 10:38:44;;;;;;;4.82;1.65;;;;;;;10.79;57.25;99855.44;5123219;27;20063;-69
2024/03/23 10:41:12;;;;;;;10.02;1.80;;;;;;;10.71;57.30;99852.34;5098656;27;20052;-70
2024/03/23 10:43:39;;;;;;;8.77;2.03;;;;;;;10.92;58.68;99852.94;5103837;27;20051;-72
2024/03/23 10:46:06;;;;;;;7.82;1.88;;;;;;;11.27;56.42;99853.56;5123876;27;20059;-71
2024/03/23 10:48:34;;;;;;;6.40;2.17;;;;;;;11.30;53.77;99844.59;5121182;27;20083;-72
2024/03/23 10:51:01;;;;;;;7.57;1.95;;;;;;;11.11;53.85;99869.50;5106053;27;20062;-71
2024/03/23 10:53:28;;;;;;;8.63;2.35;;;;;;;10.28;54.87;99845.94;5121250;27;20039;-75
2024/03/23 10:55:57;;;;;;;9.50;2.40;;;;;;;10.30;57.83;99878.47;5120247;27;20089;-70
2024/03/23 10:58:27;;;;;;;7.22;2.22;;;;;;;10.15;58.22;99888.06;5104436;27;20068;-71
2024/03/23 11:00:55;;;;;;;4.90;1.30;;;;;;;9.79;64.30;99917.28;5115887;27;20099;-71
2024/03/23 11:03:32;;;;;;;7.45;1.55;;;;;;;8.50;95.64;99930.69;5106821;27;20035;-69
2024/03/23 11:06:00;;;;;;;4.15;1.30;;;;;;;7.40;100.00;99931.03;5125704;27;20039;-69
2024/03/23 11:08:36;;;;;;;6.30;1.65;;;;;;;6.78;100.00;99909.00;5120550;27;20122;-69
2024/03/23 11:11:18;;;;;;;4.32;1.27;;;;;;;6.67;100.00;99915.53;5122731;27;20501;-70
2024/03/23 11:13:44;;;;;;;5.65;1.63;;;;;;;6.69;100.00;99916.34;5123943;27;20043;-71
2024/03/23 11:16:15;;;;;;;4.68;1.42;;;;;;;6.65;100.00;99877.06;5106552;27;20086;-72
2024/03/23 11:18:41;;;;;;;3.90;1.67;;;;;;;7.03;100.00;99899.22;5117763;27;20055;-70
2024/03/23 11:21:09;;;;;;;3.95;1.48;;;;;;;7.33;100.00;99916.41;5122193;27;20057;-72
2024/03/23 11:23:35;;;;;;;4.82;1.65;;;;;;;7.43;100.00;99900.22;5108287;27;20130;-70
2024/03/23 11:26:02;;;;;;;6.25;2.10;;;;;;;7.73;100.00;99914.72;5119145;27;20039;-71
2024/03/23 11:28:31;;;;;;;6.43;2.00;;;;;;;8.11;100.00;99920.97;5120610;27;20039;-75